Time;durP1;ratioP1;P1;durP2;ratioP2;P2;SDS_P1;SDS_P2;PMS_P1;PMS_P2;Temp;Humidity;BMP_temperature;BMP_pressure;BME280_temperature;BME280_humidity;BME280_pressure;Samples;Min_cycle;Max_cycle;Signal;HPM_P1;HPM_P2
2022/11/18 00:00:47;;;;;;;;;;;;;;;10.42;77.67;96505.81;7386272;19;19952;-75
2022/11/18 00:03:13;;;;;;;;;;;;;;;10.35;77.61;96503.19;7383895;19;20607;-75
2022/11/18 00:05:40;;;;;;;;;;;;;;;10.38;77.15;96502.78;7390035;19;19922;-76
2022/11/18 00:08:07;;;;;;;;;;;;;;;10.26;77.68;96496.41;7390367;19;19930;-76
2022/11/18 00:10:37;;;;;;;;;;;;;;;10.34;77.94;96498.88;7387487;19;19922;-74
2022/11/18 00:15:58;;;;;;;;;;;;;;;10.35;77.93;96503.19;7388059;19;19919;-76
2022/11/18 00:18:25;;;;;;;;;;;;;;;10.36;77.93;96496.88;7383722;19;21261;-76
2022/11/18 00:20:52;;;;;;;;;;;;;;;10.33;78.18;96492.78;7384016;19;19935;-77
2022/11/18 00:23:18;;;;;;;;;;;;;;;10.41;78.25;96497.06;7389127;19;19930;-75
2022/11/18 00:25:45;;;;;;;;;;;;;;;10.40;77.93;96495.47;7388408;19;19923;-76
2022/11/18 00:28:11;;;;;;;;;;;;;;;10.44;77.98;96501.16;7388159;19;20554;-75
2022/11/18 00:30:38;;;;;;;;;;;;;;;10.49;77.71;96502.16;7386304;19;19919;-76
2022/11/18 00:33:05;;;;;;;;;;;;;;;10.48;77.60;96503.19;7386581;19;20441;-76
2022/11/18 00:35:32;;;;;;;;;;;;;;;10.33;77.85;96510.47;7378314;19;19918;-75
2022/11/18 00:37:59;;;;;;;;;;;;;;;10.47;77.55;96504.19;7382578;19;19919;-76
2022/11/18 00:40:25;;;;;;;;;;;;;;;10.47;77.63;96512.13;7386700;19;19923;-76
2022/11/18 00:42:55;;;;;;;;;;;;;;;10.38;78.30;96507.25;7388633;19;19919;-77
2022/11/18 00:45:22;;;;;;;;;;;;;;;10.58;77.83;96512.56;7388345;19;19923;-76
2022/11/18 00:47:48;;;;;;;;;;;;;;;10.65;77.53;96510.75;7389957;19;19919;-75
2022/11/18 00:50:15;;;;;;;;;;;;;;;10.50;77.56;96509.06;7391640;19;19919;-76
2022/11/18 00:52:42;;;;;;;;;;;;;;;10.57;77.58;96511.75;7389487;19;19926;-74
2022/11/18 00:55:08;;;;;;;;;;;;;;;10.49;78.10;96512.75;7389092;19;19922;-76
2022/11/18 00:57:35;;;;;;;;;;;;;;;10.59;78.05;96511.56;7393522;19;19957;-75
2022/11/18 01:00:02;;;;;;;;;;;;;;;10.67;77.56;96512.16;7394377;19;19915;-75
2022/11/18 01:02:29;;;;;;;;;;;;;;;10.60;77.54;96515.81;7394110;19;19919;-76
2022/11/18 01:04:56;;;;;;;;;;;;;;;10.59;77.58;96514.19;7391702;19;19927;-76
2022/11/18 01:07:22;;;;;;;;;;;;;;;10.57;77.54;96511.75;7390137;19;19929;-76
2022/11/18 01:09:49;;;;;;;;;;;;;;;10.55;77.47;96519.88;7390373;19;19947;-75
2022/11/18 01:15:01;;;;;;;;;;;;;;;10.54;77.87;96522.72;7391895;19;19918;-77
2022/11/18 01:17:31;;;;;;;;;;;;;;;10.52;77.80;96524.75;7391283;19;19922;-76
2022/11/18 01:19:57;;;;;;;;;;;;;;;10.52;77.27;96520.28;7391028;19;19926;-76
2022/11/18 01:22:24;;;;;;;;;;;;;;;10.45;77.29;96524.75;7393395;19;19919;-74
2022/11/18 01:24:51;;;;;;;;;;;;;;;10.44;77.55;96520.47;7388557;19;20002;-76
2022/11/18 01:27:17;;;;;;;;;;;;;;;10.46;77.66;96523.72;7382646;19;19926;-75
2022/11/18 01:29:44;;;;;;;;;;;;;;;10.32;78.11;96519.41;7391328;19;19926;-76
2022/11/18 01:32:15;;;;;;;;;;;;;;;10.35;78.25;96526.97;7390214;19;19915;-75
2022/11/18 01:34:50;;;;;;;;;;;;;;;10.45;77.87;96523.91;7388280;19;19926;-75
2022/11/18 01:37:17;;;;;;;;;;;;;;;10.35;77.70;96526.97;7388698;19;19919;-75
2022/11/18 01:39:43;;;;;;;;;;;;;;;10.34;77.58;96522.66;7394377;19;20580;-74
2022/11/18 01:42:14;;;;;;;;;;;;;;;10.38;77.79;96531.03;7387304;19;19930;-75
2022/11/18 01:45:01;;;;;;;;;;;;;;;10.24;78.49;96530.97;7388258;19;20298;-75
2022/11/18 01:47:28;;;;;;;;;;;;;;;10.38;78.20;96534.50;7389999;19;19978;-75
2022/11/18 01:49:55;;;;;;;;;;;;;;;10.46;77.93;96536.13;7392169;19;20481;-75
2022/11/18 01:52:21;;;;;;;;;;;;;;;10.36;78.12;96541.78;7391884;19;20386;-76
2022/11/18 01:54:50;;;;;;;;;;;;;;;10.36;78.00;96538.34;7389930;19;19931;-75
2022/11/18 01:57:18;;;;;;;;;;;;;;;10.25;78.33;96537.06;7388901;19;19940;-76
2022/11/18 01:59:45;;;;;;;;;;;;;;;10.36;77.85;96547.09;7388035;19;19923;-75
2022/11/18 02:02:12;;;;;;;;;;;;;;;10.34;77.70;96543.81;7394223;19;19922;-76
2022/11/18 02:04:40;;;;;;;;;;;;;;;10.25;78.15;96543.16;7390482;19;19926;-76
2022/11/18 02:07:07;;;;;;;;;;;;;;;10.24;78.43;96543.34;7390303;19;19934;-76
2022/11/18 02:09:34;;;;;;;;;;;;;;;10.22;78.54;96546.19;7389265;19;19971;-75
2022/11/18 02:12:00;;;;;;;;;;;;;;;10.09;78.82;96549.59;7384238;19;19960;-75
2022/11/18 02:14:28;;;;;;;;;;;;;;;10.21;78.56;96549.03;7381350;19;19930;-75
2022/11/18 02:16:57;;;;;;;;;;;;;;;10.20;78.68;96558.78;7385547;19;20365;-75
2022/11/18 02:19:36;;;;;;;;;;;;;;;10.17;78.56;96559.19;7388041;19;19910;-75
2022/11/18 02:22:03;;;;;;;;;;;;;;;9.99;79.10;96566.84;7387085;19;19918;-75
2022/11/18 02:24:48;;;;;;;;;;;;;;;10.09;79.18;96564.66;7386712;19;19925;-75
2022/11/18 02:27:15;;;;;;;;;;;;;;;10.09;78.84;96562.81;7387679;19;20338;-75
2022/11/18 02:30:00;;;;;;;;;;;;;;;10.13;78.89;96571.16;7386346;19;19974;-75
2022/11/18 02:32:38;;;;;;;;;;;;;;;10.12;79.07;96574.81;7382881;19;20381;-75
2022/11/18 02:35:05;;;;;;;;;;;;;;;10.23;78.94;96565.50;7383872;19;19926;-75
2022/11/18 02:37:40;;;;;;;;;;;;;;;10.18;79.02;96571.38;7386921;19;19944;-74
2022/11/18 02:40:10;;;;;;;;;;;;;;;10.12;79.28;96569.53;7386364;19;19915;-75
2022/11/18 02:42:36;;;;;;;;;;;;;;;10.17;79.05;96568.94;7385755;19;20295;-75
2022/11/18 02:45:05;;;;;;;;;;;;;;;10.25;78.99;96566.13;7383978;19;20352;-76
2022/11/18 02:47:32;;;;;;;;;;;;;;;10.22;78.98;96562.06;7381546;19;19926;-74
2022/11/18 02:50:00;;;;;;;;;;;;;;;10.24;78.98;96567.97;7381463;19;20787;-76
2022/11/18 02:52:27;;;;;;;;;;;;;;;10.22;78.87;96570.00;7385124;19;19923;-75
2022/11/18 02:54:53;;;;;;;;;;;;;;;10.19;78.98;96567.75;7385528;19;19951;-74
2022/11/18 02:57:23;;;;;;;;;;;;;;;10.19;78.73;96580.13;7385531;19;20208;-74
2022/11/18 02:59:50;;;;;;;;;;;;;;;10.28;78.47;96581.63;7387308;19;19952;-74
2022/11/18 03:02:17;;;;;;;;;;;;;;;10.30;78.41;96579.59;7386451;19;19951;-75
2022/11/18 03:04:44;;;;;;;;;;;;;;;10.38;78.25;96584.72;7386553;19;20393;-74
2022/11/18 03:07:17;;;;;;;;;;;;;;;10.30;77.91;96584.88;7384668;19;19923;-74
2022/11/18 03:09:45;;;;;;;;;;;;;;;10.42;77.63;96587.75;7387777;19;20497;-75
2022/11/18 03:12:35;;;;;;;;;;;;;;;10.33;77.48;96585.31;7387422;19;19936;-74
2022/11/18 03:15:05;;;;;;;;;;;;;;;10.27;78.24;96601.97;7384598;19;19915;-74
2022/11/18 03:17:54;;;;;;;;;;;;;;;10.23;78.23;96599.88;7388483;19;19915;-74
2022/11/18 03:20:22;;;;;;;;;;;;;;;10.38;78.08;96599.75;7385752;19;19919;-74
2022/11/18 03:22:58;;;;;;;;;;;;;;;10.28;78.23;96606.22;7383694;19;19922;-74
2022/11/18 03:25:28;;;;;;;;;;;;;;;10.32;78.27;96617.19;7378327;19;19933;-75
2022/11/18 03:27:54;;;;;;;;;;;;;;;10.24;77.90;96612.91;7386886;19;19944;-73
2022/11/18 03:30:21;;;;;;;;;;;;;;;10.15;78.27;96623.81;7386173;19;20285;-73
2022/11/18 03:33:04;;;;;;;;;;;;;;;10.23;78.03;96634.22;7385390;19;19940;-75
2022/11/18 03:35:32;;;;;;;;;;;;;;;10.21;78.35;96641.53;7383535;19;19947;-76
2022/11/18 03:38:00;;;;;;;;;;;;;;;10.09;78.61;96642.09;7383084;19;20309;-75
2022/11/18 03:40:28;;;;;;;;;;;;;;;10.03;78.84;96653.44;7379303;19;19919;-73
2022/11/18 03:42:56;;;;;;;;;;;;;;;9.97;78.88;96661.31;7383895;19;19923;-75
2022/11/18 03:45:24;;;;;;;;;;;;;;;10.04;78.98;96660.34;7384581;19;20311;-75
2022/11/18 03:47:53;;;;;;;;;;;;;;;9.92;78.97;96666.34;7385409;19;19922;-75
2022/11/18 03:50:21;;;;;;;;;;;;;;;10.00;79.00;96667.00;7384165;19;19914;-75
2022/11/18 03:52:47;;;;;;;;;;;;;;;10.18;78.56;96668.34;7384315;19;19919;-74
2022/11/18 03:55:16;;;;;;;;;;;;;;;10.04;78.75;96675.38;7381239;19;20594;-75
2022/11/18 03:57:49;;;;;;;;;;;;;;;10.08;78.76;96679.25;7380970;19;19940;-75
2022/11/18 04:00:16;;;;;;;;;;;;;;;9.95;78.90;96676.53;7385825;19;20360;-75
2022/11/18 04:02:42;;;;;;;;;;;;;;;9.78;79.40;96683.94;7387195;19;19927;-75
2022/11/18 04:05:09;;;;;;;;;;;;;;;9.83;79.27;96685.00;7382519;19;19918;-74
2022/11/18 04:07:36;;;;;;;;;;;;;;;9.64;79.99;96685.69;7389515;19;19918;-73
2022/11/18 04:10:22;;;;;;;;;;;;;;;9.67;80.08;96691.38;7387083;19;19934;-75
2022/11/18 04:12:50;;;;;;;;;;;;;;;9.74;79.59;96694.09;7380957;19;19939;-75
2022/11/18 04:15:17;;;;;;;;;;;;;;;9.60;79.94;96692.34;7379639;19;19919;-75
2022/11/18 04:17:44;;;;;;;;;;;;;;;9.53;79.94;96694.94;7386100;19;19929;-75
2022/11/18 04:20:15;;;;;;;;;;;;;;;9.60;79.59;96700.25;7382557;19;19919;-75
2022/11/18 04:22:42;;;;;;;;;;;;;;;9.54;79.68;96703.66;7383901;19;20494;-74
2022/11/18 04:25:09;;;;;;;;;;;;;;;9.63;79.20;96698.03;7386595;19;19930;-76
2022/11/18 04:27:35;;;;;;;;;;;;;;;9.57;79.54;96696.16;7383331;19;19937;-74
2022/11/18 04:30:03;;;;;;;;;;;;;;;9.66;79.06;96700.31;7381221;19;19922;-74
2022/11/18 04:32:29;;;;;;;;;;;;;;;9.51;79.40;96696.94;7382325;19;19914;-76
2022/11/18 04:34:56;;;;;;;;;;;;;;;9.72;78.97;96700.56;7386169;19;19915;-74
2022/11/18 04:37:23;;;;;;;;;;;;;;;9.66;78.84;96707.41;7383900;19;19944;-75
2022/11/18 04:39:49;;;;;;;;;;;;;;;9.75;78.55;96708.09;7385752;19;19923;-75
2022/11/18 04:42:16;;;;;;;;;;;;;;;9.75;78.70;96702.81;7384524;19;19952;-75
2022/11/18 04:44:42;;;;;;;;;;;;;;;9.72;78.54;96708.50;7382826;19;20302;-75
2022/11/18 04:47:09;;;;;;;;;;;;;;;9.64;78.88;96702.34;7379235;19;19940;-75
2022/11/18 04:49:36;;;;;;;;;;;;;;;9.62;79.29;96704.34;7383051;19;20381;-73
2022/11/18 04:52:03;;;;;;;;;;;;;;;9.77;79.21;96711.34;7383101;19;19956;-75
2022/11/18 04:54:30;;;;;;;;;;;;;;;9.78;79.20;96711.16;7381514;19;19906;-75
2022/11/18 04:56:57;;;;;;;;;;;;;;;9.79;79.22;96709.34;7383603;19;19927;-74
2022/11/18 04:59:25;;;;;;;;;;;;;;;9.64;78.87;96712.88;7385464;19;19972;-76
2022/11/18 05:01:52;;;;;;;;;;;;;;;9.68;79.01;96711.50;7382107;19;19919;-76
2022/11/18 05:04:20;;;;;;;;;;;;;;;9.71;78.86;96722.69;7377791;19;19919;-74
2022/11/18 05:06:46;;;;;;;;;;;;;;;9.73;79.11;96718.84;7384731;19;19950;-76
2022/11/18 05:09:13;;;;;;;;;;;;;;;9.73;78.83;96718.84;7380187;19;19919;-76
2022/11/18 05:14:26;;;;;;;;;;;;;;;9.58;78.91;96724.19;7378801;19;19927;-76
2022/11/18 05:16:52;;;;;;;;;;;;;;;9.68;79.46;96729.16;7374940;19;20699;-76
2022/11/18 05:19:19;;;;;;;;;;;;;;;9.68;79.25;96732.59;7374484;19;19926;-76
2022/11/18 05:21:46;;;;;;;;;;;;;;;9.81;79.12;96739.03;7380712;19;20007;-75
2022/11/18 05:24:12;;;;;;;;;;;;;;;9.73;78.94;96736.53;7379687;19;19923;-75
2022/11/18 05:26:39;;;;;;;;;;;;;;;9.82;78.59;96738.84;7380281;19;19934;-75
2022/11/18 05:29:06;;;;;;;;;;;;;;;9.65;78.69;96734.81;7375286;19;19932;-75
2022/11/18 05:31:32;;;;;;;;;;;;;;;9.55;79.04;96745.69;7380545;19;19930;-75
2022/11/18 05:33:59;;;;;;;;;;;;;;;9.62;78.70;96746.59;7386323;19;20263;-75
2022/11/18 05:36:26;;;;;;;;;;;;;;;9.62;78.57;96748.41;7383723;19;19911;-74
2022/11/18 05:38:52;;;;;;;;;;;;;;;9.74;78.04;96746.06;7384778;19;19940;-75
2022/11/18 05:44:05;;;;;;;;;;;;;;;9.70;78.16;96756.19;7391046;19;19948;-75
2022/11/18 05:46:31;;;;;;;;;;;;;;;9.68;77.86;96756.38;7392314;19;19922;-75
2022/11/18 05:48:59;;;;;;;;;;;;;;;9.77;77.75;96753.59;7387026;19;19911;-76
2022/11/18 05:51:25;;;;;;;;;;;;;;;9.59;78.04;96756.72;7387447;19;20356;-75
2022/11/18 05:53:52;;;;;;;;;;;;;;;9.59;78.11;96762.81;7386173;19;19993;-75
2022/11/18 05:56:29;;;;;;;;;;;;;;;9.60;78.46;96769.72;7389177;19;19918;-75
2022/11/18 05:58:56;;;;;;;;;;;;;;;9.60;78.26;96769.72;7391046;19;19932;-74
2022/11/18 06:01:24;;;;;;;;;;;;;;;9.39;78.78;96772.34;7390789;19;19927;-74
2022/11/18 06:03:51;;;;;;;;;;;;;;;9.39;79.21;96774.97;7392783;19;19922;-74
2022/11/18 06:06:19;;;;;;;;;;;;;;;9.36;79.21;96773.53;7391929;19;19915;-75
2022/11/18 06:08:47;;;;;;;;;;;;;;;9.51;79.16;96776.13;7386726;19;19922;-75
2022/11/18 06:11:14;;;;;;;;;;;;;;;9.61;79.10;96779.28;7382872;19;19930;-75
2022/11/18 06:13:51;;;;;;;;;;;;;;;9.68;78.69;96774.84;7389930;19;19927;-75
2022/11/18 06:16:18;;;;;;;;;;;;;;;9.62;78.73;96783.53;7385493;19;19919;-74
2022/11/18 06:18:44;;;;;;;;;;;;;;;9.63;78.57;96789.63;7386870;19;19937;-74
2022/11/18 06:21:11;;;;;;;;;;;;;;;9.59;78.47;96789.22;7386591;19;19948;-74
2022/11/18 06:23:38;;;;;;;;;;;;;;;9.41;78.85;96781.72;7386190;19;19935;-75
2022/11/18 06:26:04;;;;;;;;;;;;;;;9.41;78.94;96786.19;7378415;19;19990;-75
2022/11/18 06:28:31;;;;;;;;;;;;;;;9.48;79.23;96792.34;7382064;19;19923;-74
2022/11/18 06:30:58;;;;;;;;;;;;;;;9.49;79.04;96793.16;7384033;19;19915;-74
2022/11/18 06:33:24;;;;;;;;;;;;;;;9.45;79.11;96798.81;7384366;19;20347;-75
2022/11/18 06:35:51;;;;;;;;;;;;;;;9.50;79.20;96792.16;7386626;19;19934;-75
2022/11/18 06:38:18;;;;;;;;;;;;;;;9.51;79.14;96793.81;7384299;19;19918;-74
2022/11/18 06:40:45;;;;;;;;;;;;;;;9.62;79.32;96799.38;7387637;19;19923;-76
2022/11/18 06:48:46;;;;;;;;;;;;;;;9.66;78.53;96810.38;7388268;19;20692;-75
2022/11/18 06:51:13;;;;;;;;;;;;;;;9.62;78.60;96814.41;7389458;19;19970;-75
2022/11/18 06:53:39;;;;;;;;;;;;;;;9.78;78.24;96818.63;7392535;19;19957;-74
2022/11/18 06:56:06;;;;;;;;;;;;;;;9.79;78.08;96822.91;7387003;19;19935;-75
2022/11/18 06:58:33;;;;;;;;;;;;;;;9.75;78.18;96834.88;7387177;19;19943;-75
2022/11/18 07:01:11;;;;;;;;;;;;;;;9.85;77.61;96832.72;7385633;19;19919;-75
2022/11/18 07:03:38;;;;;;;;;;;;;;;9.73;77.52;96836.88;7389197;19;20343;-74
2022/11/18 07:06:05;;;;;;;;;;;;;;;9.58;78.33;96836.91;7390013;19;19926;-75
2022/11/18 07:08:33;;;;;;;;;;;;;;;9.59;78.46;96844.66;7385931;19;19918;-75
2022/11/18 07:11:00;;;;;;;;;;;;;;;9.62;78.26;96846.91;7386172;19;20315;-74
2022/11/18 07:13:27;;;;;;;;;;;;;;;9.61;78.44;96855.00;7388561;19;19920;-75
2022/11/18 07:15:54;;;;;;;;;;;;;;;9.56;78.50;96852.13;7386636;19;19932;-75
2022/11/18 07:18:21;;;;;;;;;;;;;;;9.68;78.19;96864.63;7384233;19;19964;-75
2022/11/18 07:20:47;;;;;;;;;;;;;;;9.74;77.77;96857.81;7390979;19;20563;-75
2022/11/18 07:23:14;;;;;;;;;;;;;;;9.66;77.63;96869.31;7390411;19;19922;-75
2022/11/18 07:25:41;;;;;;;;;;;;;;;9.63;77.82;96872.31;7390565;19;20343;-75
2022/11/18 07:28:10;;;;;;;;;;;;;;;9.60;77.76;96875.31;7387898;19;19923;-74
2022/11/18 07:30:37;;;;;;;;;;;;;;;9.54;77.93;96875.25;7391716;19;19922;-74
2022/11/18 07:33:04;;;;;;;;;;;;;;;9.66;77.66;96877.25;7383680;19;19910;-75
2022/11/18 07:35:31;;;;;;;;;;;;;;;9.52;77.95;96880.72;7388657;19;20351;-74
2022/11/18 07:37:58;;;;;;;;;;;;;;;9.51;78.45;96886.19;7389359;19;19922;-74
2022/11/18 07:40:24;;;;;;;;;;;;;;;9.54;78.19;96886.63;7392725;19;19953;-74
2022/11/18 07:42:51;;;;;;;;;;;;;;;9.47;78.26;96880.44;7394538;19;19926;-74
2022/11/18 07:45:22;;;;;;;;;;;;;;;9.35;78.86;96887.22;7393693;19;20259;-75
2022/11/18 07:47:49;;;;;;;;;;;;;;;9.45;78.25;96890.38;7388519;19;20039;-74
2022/11/18 07:50:16;;;;;;;;;;;;;;;9.45;78.39;96893.00;7387319;19;19960;-75
2022/11/18 07:52:42;;;;;;;;;;;;;;;9.66;77.84;96895.72;7393938;19;19936;-75
2022/11/18 07:55:09;;;;;;;;;;;;;;;9.64;77.56;96903.00;7388822;19;19922;-74
2022/11/18 07:57:35;;;;;;;;;;;;;;;9.76;77.31;96905.16;7393704;19;19919;-75
2022/11/18 08:00:03;;;;;;;;;;;;;;;9.67;77.72;96912.38;7392119;19;20457;-75
2022/11/18 08:02:37;;;;;;;;;;;;;;;9.75;77.46;96906.16;7392193;19;19994;-74
2022/11/18 08:05:04;;;;;;;;;;;;;;;9.63;77.66;96911.91;7394045;19;19930;-75
2022/11/18 08:07:32;;;;;;;;;;;;;;;9.67;77.76;96913.19;7389714;19;19915;-74
2022/11/18 08:09:59;;;;;;;;;;;;;;;9.71;78.18;96918.91;7391544;19;19993;-75
2022/11/18 08:12:25;;;;;;;;;;;;;;;9.65;77.96;96922.31;7392904;19;19915;-75
2022/11/18 08:14:52;;;;;;;;;;;;;;;9.65;77.89;96928.41;7391764;19;19935;-75
2022/11/18 08:17:19;;;;;;;;;;;;;;;9.54;78.56;96934.16;7390850;19;19914;-75
2022/11/18 08:19:45;;;;;;;;;;;;;;;9.51;78.32;96936.34;7392286;19;19919;-75
2022/11/18 08:22:12;;;;;;;;;;;;;;;9.72;77.85;96936.41;7391564;19;19915;-74
2022/11/18 08:24:39;;;;;;;;;;;;;;;9.66;77.92;96931.84;7386874;19;20286;-75
2022/11/18 08:27:05;;;;;;;;;;;;;;;9.86;77.77;96942.66;7390362;19;19918;-75
2022/11/18 08:29:32;;;;;;;;;;;;;;;9.65;77.85;96948.72;7391787;19;19951;-75
2022/11/18 08:31:58;;;;;;;;;;;;;;;9.71;77.95;96947.16;7392946;19;19926;-75
2022/11/18 08:34:25;;;;;;;;;;;;;;;9.62;78.34;96955.16;7389742;19;19915;-75
2022/11/18 08:36:51;;;;;;;;;;;;;;;9.65;78.25;96960.09;7390494;19;19923;-75
2022/11/18 08:39:18;;;;;;;;;;;;;;;9.78;77.94;96955.97;7385328;19;19923;-74
2022/11/18 08:41:45;;;;;;;;;;;;;;;9.60;78.48;96957.16;7386054;19;20332;-75
2022/11/18 08:44:13;;;;;;;;;;;;;;;9.60;78.36;96956.34;7393325;19;19923;-74
2022/11/18 08:46:40;;;;;;;;;;;;;;;9.63;78.44;96954.16;7392654;19;19919;-75
2022/11/18 08:49:06;;;;;;;;;;;;;;;9.82;78.16;96967.78;7389380;19;19915;-74
2022/11/18 08:51:33;;;;;;;;;;;;;;;9.89;78.40;96956.28;7392553;19;20260;-75
2022/11/18 08:54:00;;;;;;;;;;;;;;;10.02;77.86;96971.47;7392279;19;21172;-75
2022/11/18 08:56:26;;;;;;;;;;;;;;;10.07;77.73;96969.09;7384774;19;19911;-75
2022/11/18 08:58:53;;;;;;;;;;;;;;;10.09;77.97;96968.94;7387321;19;20351;-74
2022/11/18 09:01:19;;;;;;;;;;;;;;;10.20;77.34;96972.91;7390194;19;20362;-75
2022/11/18 09:03:46;;;;;;;;;;;;;;;10.07;77.94;96973.56;7388762;19;20380;-75
2022/11/18 09:06:17;;;;;;;;;;;;;;;10.29;77.68;96974.44;7389376;19;19915;-75
2022/11/18 09:08:44;;;;;;;;;;;;;;;10.42;77.43;96979.84;7394171;19;19915;-75
2022/11/18 09:11:12;;;;;;;;;;;;;;;10.35;77.48;96978.97;7394258;19;20280;-75
2022/11/18 09:13:38;;;;;;;;;;;;;;;10.35;77.78;96981.63;7388673;19;19922;-75
2022/11/18 09:16:26;;;;;;;;;;;;;;;10.42;77.58;96987.78;7395803;19;20333;-76
2022/11/18 09:18:54;;;;;;;;;;;;;;;10.45;77.23;96989.22;7390654;19;20338;-74
2022/11/18 09:21:20;;;;;;;;;;;;;;;10.47;77.86;96993.31;7393552;19;19936;-75
2022/11/18 09:23:47;;;;;;;;;;;;;;;10.60;77.63;96989.16;7396612;19;19922;-75
2022/11/18 09:26:15;;;;;;;;;;;;;;;10.63;76.99;96989.59;7391917;19;19927;-75
2022/11/18 09:28:42;;;;;;;;;;;;;;;10.62;77.09;96995.91;7390172;19;20043;-75
2022/11/18 09:31:12;;;;;;;;;;;;;;;10.61;77.18;96993.44;7385639;19;20704;-74
2022/11/18 09:33:39;;;;;;;;;;;;;;;10.59;76.86;96998.13;7388463;19;19915;-75
2022/11/18 09:36:10;;;;;;;;;;;;;;;10.56;76.94;96996.69;7392579;19;19919;-75
2022/11/18 09:38:37;;;;;;;;;;;;;;;10.46;77.60;97004.91;7389249;19;19983;-75
2022/11/18 09:41:22;;;;;;;;;;;;;;;10.40;77.26;97003.03;7390719;19;19936;-75
2022/11/18 09:43:52;;;;;;;;;;;;;;;10.51;77.23;97009.66;7390900;19;20380;-75
2022/11/18 09:46:22;;;;;;;;;;;;;;;10.48;77.47;97007.38;7381776;19;19919;-74
2022/11/18 09:51:36;;;;;;;;;;;;;;;10.42;77.80;97005.47;7391345;19;19923;-75
2022/11/18 09:54:03;;;;;;;;;;;;;;;10.48;77.89;97007.38;7390258;19;19927;-75
2022/11/18 09:56:29;;;;;;;;;;;;;;;10.48;77.97;97010.84;7394760;19;19927;-75
2022/11/18 09:58:56;;;;;;;;;;;;;;;10.58;77.69;97009.69;7396467;19;19936;-74
2022/11/18 10:01:22;;;;;;;;;;;;;;;10.58;77.81;97014.97;7390118;19;19919;-75
2022/11/18 10:03:53;;;;;;;;;;;;;;;10.37;78.26;97013.16;7386904;19;19974;-74
2022/11/18 10:06:28;;;;;;;;;;;;;;;10.46;77.81;97015.50;7390757;19;19922;-75
2022/11/18 10:08:58;;;;;;;;;;;;;;;10.27;78.21;97019.56;7385500;19;20601;-74
2022/11/18 10:11:25;;;;;;;;;;;;;;;10.21;78.61;97024.75;7389199;19;19923;-75
2022/11/18 10:14:11;;;;;;;;;;;;;;;10.08;78.59;97026.25;7389647;19;20256;-75
2022/11/18 10:16:54;;;;;;;;;;;;;;;10.25;78.32;97031.31;7392890;19;19931;-74
2022/11/18 10:19:44;;;;;;;;;;;;;;;10.23;78.37;97034.13;7384135;19;19955;-74
2022/11/18 10:22:22;;;;;;;;;;;;;;;10.00;79.42;97044.00;7386076;19;20347;-74
2022/11/18 10:24:53;;;;;;;;;;;;;;;10.13;79.05;97041.53;7386924;19;20582;-75
2022/11/18 10:27:23;;;;;;;;;;;;;;;10.17;79.19;97047.28;7384808;19;19922;-75
2022/11/18 10:29:53;;;;;;;;;;;;;;;10.29;79.00;97037.88;7386854;19;19926;-75
2022/11/18 10:32:19;;;;;;;;;;;;;;;10.30;79.05;97044.81;7390347;19;19914;-74
2022/11/18 10:34:50;;;;;;;;;;;;;;;10.17;79.55;97045.44;7389223;19;19943;-73
2022/11/18 10:37:27;;;;;;;;;;;;;;;10.29;79.25;97038.72;7388634;19;19923;-74
2022/11/18 10:40:22;;;;;;;;;;;;;;;10.45;78.89;97042.94;7390511;19;19922;-75
2022/11/18 10:42:49;;;;;;;;;;;;;;;10.66;78.72;97041.31;7396690;19;19930;-75
2022/11/18 10:45:22;;;;;;;;;;;;;;;10.62;78.58;97042.69;7395722;19;19952;-76
2022/11/18 10:47:59;;;;;;;;;;;;;;;10.74;78.32;97041.16;7395229;19;19944;-74
2022/11/18 10:50:31;;;;;;;;;;;;;;;10.82;78.03;97043.72;7393615;19;19919;-75
2022/11/18 10:52:58;;;;;;;;;;;;;;;10.77;78.37;97051.41;7393476;19;20283;-74
2022/11/18 10:55:26;;;;;;;;;;;;;;;10.91;78.39;97050.50;7392721;19;19923;-74
2022/11/18 10:57:54;;;;;;;;;;;;;;;10.83;78.62;97036.59;7394044;19;19952;-75
2022/11/18 11:00:33;;;;;;;;;;;;;;;11.05;78.20;97043.47;7392176;19;19918;-75
2022/11/18 11:03:00;;;;;;;;;;;;;;;11.02;78.81;97038.56;7395274;19;19940;-75
2022/11/18 11:05:27;;;;;;;;;;;;;;;10.91;78.94;97041.75;7389530;19;19914;-75
2022/11/18 11:08:16;;;;;;;;;;;;;;;10.89;78.87;97044.56;7388976;19;19953;-75
2022/11/18 11:11:02;;;;;;;;;;;;;;;10.75;78.95;97041.00;7383222;19;20002;-74
2022/11/18 11:13:29;;;;;;;;;;;;;;;10.73;78.86;97039.53;7387583;19;19927;-75
2022/11/18 11:15:57;;;;;;;;;;;;;;;10.54;79.42;97047.09;7390800;19;19936;-74
2022/11/18 11:18:43;;;;;;;;;;;;;;;10.59;79.38;97046.53;7387382;19;19927;-74
2022/11/18 11:21:12;;;;;;;;;;;;;;;10.75;78.67;97054.22;7389211;19;19931;-75
2022/11/18 11:23:39;;;;;;;;;;;;;;;10.45;79.17;97047.41;7390638;19;19948;-75
2022/11/18 11:26:07;;;;;;;;;;;;;;;10.37;79.28;97050.16;7383696;19;20368;-75
2022/11/18 11:29:03;;;;;;;;;;;;;;;10.37;79.29;97055.44;7383051;19;20295;-74
2022/11/18 11:31:42;;;;;;;;;;;;;;;10.30;79.67;97068.59;7386218;19;19927;-74
2022/11/18 11:34:20;;;;;;;;;;;;;;;10.30;79.82;97065.97;7386949;19;19957;-75
2022/11/18 11:36:50;;;;;;;;;;;;;;;10.20;79.90;97068.84;7386408;19;21167;-74
2022/11/18 11:39:36;;;;;;;;;;;;;;;10.06;79.92;97069.72;7386195;19;20661;-75
2022/11/18 11:42:05;;;;;;;;;;;;;;;9.97;80.38;97066.31;7385483;19;19933;-74
2022/11/18 11:45:04;;;;;;;;;;;;;;;10.08;80.23;97063.25;7386859;19;19966;-74
2022/11/18 11:47:46;;;;;;;;;;;;;;;10.06;79.84;97064.44;7388969;19;20363;-74
2022/11/18 11:50:23;;;;;;;;;;;;;;;10.42;79.62;97059.16;7391799;19;20002;-74
2022/11/18 11:52:58;;;;;;;;;;;;;;;10.03;79.81;97073.53;7391892;19;19998;-74
2022/11/18 11:55:24;;;;;;;;;;;;;;;10.27;79.54;97082.16;7387382;19;20339;-75
2022/11/18 11:58:00;;;;;;;;;;;;;;;10.10;79.85;97071.78;7387031;19;19948;-75
2022/11/18 12:00:27;;;;;;;;;;;;;;;10.26;80.07;97085.78;7386026;19;20052;-75
2022/11/18 12:02:54;;;;;;;;;;;;;;;10.58;79.05;97075.81;7388153;19;19927;-75
2022/11/18 12:05:26;;;;;;;;;;;;;;;10.62;79.22;97075.25;7388139;19;19926;-75
2022/11/18 12:07:55;;;;;;;;;;;;;;;10.39;79.42;97071.94;7389341;19;19960;-76
2022/11/18 12:10:21;;;;;;;;;;;;;;;10.16;79.96;97078.16;7385441;19;19931;-75
2022/11/18 12:12:59;;;;;;;;;;;;;;;10.35;79.04;97071.50;7390809;19;19926;-74
2022/11/18 12:15:38;;;;;;;;;;;;;;;10.34;79.10;97067.22;7386811;19;19915;-75
2022/11/18 12:18:24;;;;;;;;;;;;;;;10.46;79.20;97064.91;7380133;19;19914;-75
2022/11/18 12:20:51;;;;;;;;;;;;;;;10.81;78.56;97073.00;7386765;19;19918;-74
2022/11/18 12:23:22;;;;;;;;;;;;;;;10.88;78.58;97077.34;7386133;19;19927;-75
2022/11/18 12:26:04;;;;;;;;;;;;;;;10.53;78.80;97069.28;7390136;19;19944;-75
2022/11/18 12:28:33;;;;;;;;;;;;;;;10.38;78.58;97083.53;7386379;19;19947;-75
2022/11/18 12:31:18;;;;;;;;;;;;;;;10.31;78.53;97084.25;7381699;19;19919;-75
2022/11/18 12:33:45;;;;;;;;;;;;;;;10.17;78.27;97084.28;7382713;19;19959;-75
2022/11/18 12:36:25;;;;;;;;;;;;;;;10.48;77.98;97082.22;7384705;19;19923;-76
2022/11/18 12:38:53;;;;;;;;;;;;;;;10.40;77.79;97090.28;7381793;19;19919;-76
2022/11/18 12:44:32;;;;;;;;;;;;;;;10.25;78.03;97092.09;7386368;19;19930;-75
2022/11/18 12:46:59;;;;;;;;;;;;;;;10.16;77.60;97094.00;7393910;19;20353;-75
2022/11/18 12:49:26;;;;;;;;;;;;;;;9.94;78.18;97090.47;7382734;19;20014;-75
2022/11/18 12:51:59;;;;;;;;;;;;;;;10.10;77.94;97092.09;7389569;19;20647;-75
2022/11/18 12:54:26;;;;;;;;;;;;;;;10.08;77.88;97108.16;7393829;19;19918;-75
2022/11/18 12:56:54;;;;;;;;;;;;;;;10.07;78.23;97093.28;7393195;19;19927;-75
2022/11/18 12:59:32;;;;;;;;;;;;;;;9.98;77.93;97102.34;7388050;19;19940;-75
2022/11/18 13:02:25;;;;;;;;;;;;;;;10.22;77.99;97097.75;7392175;19;19918;-75
2022/11/18 13:05:10;;;;;;;;;;;;;;;10.15;77.13;97100.31;7390074;19;19930;-75
2022/11/18 13:10:28;;;;;;;;;;;;;;;10.01;77.56;97094.03;7388625;19;20355;-74
2022/11/18 13:12:55;;;;;;;;;;;;;;;10.01;77.66;97103.78;7392082;19;20376;-74
2022/11/18 13:18:12;;;;;;;;;;;;;;;10.05;77.49;97100.56;7388598;19;19922;-75
2022/11/18 13:20:40;;;;;;;;;;;;;;;9.99;77.57;97106.59;7389812;19;19934;-75
2022/11/18 13:26:27;;;;;;;;;;;;;;;10.35;77.12;97111.16;7386229;19;19926;-74
2022/11/18 13:28:56;;;;;;;;;;;;;;;10.33;76.38;97110.53;7387675;19;19919;-75
2022/11/18 13:31:38;;;;;;;;;;;;;;;10.13;77.59;97112.88;7388565;19;20379;-74
2022/11/18 13:34:18;;;;;;;;;;;;;;;10.06;77.51;97110.16;7390133;19;19926;-74